sensor_id;sensor_type;location;lat;lon;timestamp;P1;durP1;ratioP1;P2;durP2;ratioP2
33108;SDS011;19481;51.118;6.940;2023-10-08T00:03:08;0.80;;;0.80;;
33108;SDS011;19481;51.118;6.940;2023-10-08T00:08:10;0.85;;;0.80;;
33108;SDS011;19481;51.118;6.940;2023-10-08T00:13:14;2.72;;;1.02;;
33108;SDS011;19481;51.118;6.940;2023-10-08T00:18:18;0.95;;;0.60;;
33108;SDS011;19481;51.118;6.940;2023-10-08T00:23:19;0.65;;;0.65;;
33108;SDS011;19481;51.118;6.940;2023-10-08T00:28:21;1.25;;;0.98;;
33108;SDS011;19481;51.118;6.940;2023-10-08T00:33:25;5.35;;;1.27;;
33108;SDS011;19481;51.118;6.940;2023-10-08T00:38:30;1.10;;;0.90;;
33108;SDS011;19481;51.118;6.940;2023-10-08T00:43:32;1.08;;;0.88;;
33108;SDS011;19481;51.118;6.940;2023-10-08T00:48:37;1.83;;;0.80;;
33108;SDS011;19481;51.118;6.940;2023-10-08T00:53:43;0.77;;;0.73;;
33108;SDS011;19481;51.118;6.940;2023-10-08T00:58:46;0.90;;;0.82;;
33108;SDS011;19481;51.118;6.940;2023-10-08T01:03:50;3.17;;;0.70;;
33108;SDS011;19481;51.118;6.940;2023-10-08T01:08:55;1.13;;;0.90;;
33108;SDS011;19481;51.118;6.940;2023-10-08T01:13:57;0.77;;;0.73;;
33108;SDS011;19481;51.118;6.940;2023-10-08T01:19:01;0.90;;;0.90;;
33108;SDS011;19481;51.118;6.940;2023-10-08T01:24:05;1.27;;;0.88;;
33108;SDS011;19481;51.118;6.940;2023-10-08T01:29:11;0.95;;;0.70;;
33108;SDS011;19481;51.118;6.940;2023-10-08T01:34:20;1.20;;;0.88;;
33108;SDS011;19481;51.118;6.940;2023-10-08T01:39:28;0.80;;;0.77;;
33108;SDS011;19481;51.118;6.940;2023-10-08T01:44:32;2.05;;;0.80;;
33108;SDS011;19481;51.118;6.940;2023-10-08T01:49:35;1.20;;;1.00;;
33108;SDS011;19481;51.118;6.940;2023-10-08T01:54:40;0.80;;;0.80;;
33108;SDS011;19481;51.118;6.940;2023-10-08T01:59:42;0.80;;;0.80;;
33108;SDS011;19481;51.118;6.940;2023-10-08T02:04:44;1.45;;;1.02;;
33108;SDS011;19481;51.118;6.940;2023-10-08T02:09:47;1.88;;;0.95;;
33108;SDS011;19481;51.118;6.940;2023-10-08T02:14:49;1.15;;;0.80;;
33108;SDS011;19481;51.118;6.940;2023-10-08T02:19:50;2.35;;;1.20;;
33108;SDS011;19481;51.118;6.940;2023-10-08T02:24:53;0.93;;;0.88;;
33108;SDS011;19481;51.118;6.940;2023-10-08T02:30:01;1.23;;;0.77;;
33108;SDS011;19481;51.118;6.940;2023-10-08T02:35:06;1.40;;;0.77;;
33108;SDS011;19481;51.118;6.940;2023-10-08T02:40:11;1.42;;;0.90;;
33108;SDS011;19481;51.118;6.940;2023-10-08T02:45:19;5.47;;;0.95;;
33108;SDS011;19481;51.118;6.940;2023-10-08T02:50:22;1.67;;;0.88;;
33108;SDS011;19481;51.118;6.940;2023-10-08T02:55:25;5.70;;;1.13;;
33108;SDS011;19481;51.118;6.940;2023-10-08T03:00:34;1.10;;;0.90;;
33108;SDS011;19481;51.118;6.940;2023-10-08T03:05:36;1.23;;;1.13;;
33108;SDS011;19481;51.118;6.940;2023-10-08T03:10:38;1.52;;;0.90;;
33108;SDS011;19481;51.118;6.940;2023-10-08T03:15:41;3.45;;;1.08;;
33108;SDS011;19481;51.118;6.940;2023-10-08T03:20:57;2.60;;;0.77;;
33108;SDS011;19481;51.118;6.940;2023-10-08T03:26:05;1.60;;;1.15;;
33108;SDS011;19481;51.118;6.940;2023-10-08T03:31:10;1.65;;;1.02;;
33108;SDS011;19481;51.118;6.940;2023-10-08T03:36:17;1.38;;;0.93;;
33108;SDS011;19481;51.118;6.940;2023-10-08T03:41:24;1.70;;;0.90;;
33108;SDS011;19481;51.118;6.940;2023-10-08T03:46:29;1.10;;;0.90;;
33108;SDS011;19481;51.118;6.940;2023-10-08T03:51:30;0.98;;;0.70;;
33108;SDS011;19481;51.118;6.940;2023-10-08T03:56:40;1.35;;;0.80;;
33108;SDS011;19481;51.118;6.940;2023-10-08T04:01:45;1.83;;;1.13;;
33108;SDS011;19481;51.118;6.940;2023-10-08T04:06:49;0.75;;;0.75;;
33108;SDS011;19481;51.118;6.940;2023-10-08T04:11:53;1.40;;;0.90;;
33108;SDS011;19481;51.118;6.940;2023-10-08T04:16:55;2.20;;;0.70;;
33108;SDS011;19481;51.118;6.940;2023-10-08T04:21:59;1.10;;;0.93;;
33108;SDS011;19481;51.118;6.940;2023-10-08T04:27:02;1.88;;;1.10;;
33108;SDS011;19481;51.118;6.940;2023-10-08T04:32:05;1.13;;;1.00;;
33108;SDS011;19481;51.118;6.940;2023-10-08T04:37:12;4.53;;;1.08;;
33108;SDS011;19481;51.118;6.940;2023-10-08T04:42:20;1.70;;;1.20;;
33108;SDS011;19481;51.118;6.940;2023-10-08T04:47:26;1.87;;;1.00;;
33108;SDS011;19481;51.118;6.940;2023-10-08T04:52:34;1.48;;;0.82;;
33108;SDS011;19481;51.118;6.940;2023-10-08T04:57:47;0.68;;;0.68;;
33108;SDS011;19481;51.118;6.940;2023-10-08T05:02:50;1.38;;;1.00;;
33108;SDS011;19481;51.118;6.940;2023-10-08T05:07:54;1.95;;;1.42;;
33108;SDS011;19481;51.118;6.940;2023-10-08T05:13:06;1.42;;;0.93;;
33108;SDS011;19481;51.118;6.940;2023-10-08T05:18:16;0.90;;;0.90;;
33108;SDS011;19481;51.118;6.940;2023-10-08T05:23:23;2.40;;;1.38;;
33108;SDS011;19481;51.118;6.940;2023-10-08T05:28:54;1.05;;;0.95;;
33108;SDS011;19481;51.118;6.940;2023-10-08T05:34:22;1.10;;;1.00;;
33108;SDS011;19481;51.118;6.940;2023-10-08T05:39:42;1.65;;;0.70;;
33108;SDS011;19481;51.118;6.940;2023-10-08T05:44:48;0.82;;;0.80;;
33108;SDS011;19481;51.118;6.940;2023-10-08T05:50:11;2.08;;;1.05;;
33108;SDS011;19481;51.118;6.940;2023-10-08T05:55:42;4.53;;;1.05;;
33108;SDS011;19481;51.118;6.940;2023-10-08T06:01:02;4.28;;;1.00;;
33108;SDS011;19481;51.118;6.940;2023-10-08T06:11:36;2.17;;;0.93;;
33108;SDS011;19481;51.118;6.940;2023-10-08T06:21:52;1.02;;;0.60;;
33108;SDS011;19481;51.118;6.940;2023-10-08T06:26:53;0.95;;;0.75;;
33108;SDS011;19481;51.118;6.940;2023-10-08T06:31:57;2.75;;;0.93;;
33108;SDS011;19481;51.118;6.940;2023-10-08T06:37:02;1.55;;;1.00;;
33108;SDS011;19481;51.118;6.940;2023-10-08T06:42:06;1.00;;;0.90;;
33108;SDS011;19481;51.118;6.940;2023-10-08T06:47:09;2.03;;;1.27;;
33108;SDS011;19481;51.118;6.940;2023-10-08T06:52:11;2.13;;;1.00;;
33108;SDS011;19481;51.118;6.940;2023-10-08T06:57:14;1.55;;;0.98;;
33108;SDS011;19481;51.118;6.940;2023-10-08T07:02:21;1.50;;;1.00;;
33108;SDS011;19481;51.118;6.940;2023-10-08T07:07:23;4.30;;;1.10;;
33108;SDS011;19481;51.118;6.940;2023-10-08T07:12:29;0.85;;;0.85;;
33108;SDS011;19481;51.118;6.940;2023-10-08T07:17:35;1.67;;;1.23;;
33108;SDS011;19481;51.118;6.940;2023-10-08T07:22:40;1.60;;;1.27;;
33108;SDS011;19481;51.118;6.940;2023-10-08T07:27:43;5.07;;;1.10;;
33108;SDS011;19481;51.118;6.940;2023-10-08T07:32:46;2.60;;;1.20;;
33108;SDS011;19481;51.118;6.940;2023-10-08T07:37:48;1.00;;;0.93;;
33108;SDS011;19481;51.118;6.940;2023-10-08T07:42:50;2.28;;;1.10;;
33108;SDS011;19481;51.118;6.940;2023-10-08T07:47:53;1.02;;;0.90;;
33108;SDS011;19481;51.118;6.940;2023-10-08T07:52:55;1.48;;;0.80;;
33108;SDS011;19481;51.118;6.940;2023-10-08T07:57:57;1.40;;;1.00;;
33108;SDS011;19481;51.118;6.940;2023-10-08T08:02:59;2.25;;;0.70;;
33108;SDS011;19481;51.118;6.940;2023-10-08T08:08:04;1.85;;;0.82;;
33108;SDS011;19481;51.118;6.940;2023-10-08T08:13:06;3.75;;;1.30;;
33108;SDS011;19481;51.118;6.940;2023-10-08T08:18:10;1.67;;;1.05;;
33108;SDS011;19481;51.118;6.940;2023-10-08T08:23:22;3.03;;;1.00;;
33108;SDS011;19481;51.118;6.940;2023-10-08T08:28:24;2.05;;;1.35;;
33108;SDS011;19481;51.118;6.940;2023-10-08T08:33:27;2.42;;;1.00;;
33108;SDS011;19481;51.118;6.940;2023-10-08T08:38:46;2.33;;;1.20;;
33108;SDS011;19481;51.118;6.940;2023-10-08T08:43:49;3.38;;;0.98;;
33108;SDS011;19481;51.118;6.940;2023-10-08T08:49:00;1.65;;;0.90;;
33108;SDS011;19481;51.118;6.940;2023-10-08T08:54:04;2.78;;;1.10;;
33108;SDS011;19481;51.118;6.940;2023-10-08T08:59:07;1.92;;;0.80;;
33108;SDS011;19481;51.118;6.940;2023-10-08T09:04:13;1.00;;;0.90;;
33108;SDS011;19481;51.118;6.940;2023-10-08T09:09:16;1.50;;;1.08;;
33108;SDS011;19481;51.118;6.940;2023-10-08T09:14:23;1.15;;;0.90;;
33108;SDS011;19481;51.118;6.940;2023-10-08T09:19:28;2.22;;;1.27;;
33108;SDS011;19481;51.118;6.940;2023-10-08T09:24:30;1.35;;;0.98;;
33108;SDS011;19481;51.118;6.940;2023-10-08T09:29:33;0.93;;;0.93;;
33108;SDS011;19481;51.118;6.940;2023-10-08T09:34:41;3.28;;;1.42;;
33108;SDS011;19481;51.118;6.940;2023-10-08T09:39:44;1.92;;;1.15;;
33108;SDS011;19481;51.118;6.940;2023-10-08T09:44:47;1.67;;;1.05;;
33108;SDS011;19481;51.118;6.940;2023-10-08T09:50:01;4.35;;;1.45;;
33108;SDS011;19481;51.118;6.940;2023-10-08T09:55:08;2.42;;;1.67;;
33108;SDS011;19481;51.118;6.940;2023-10-08T10:00:11;4.30;;;1.35;;
33108;SDS011;19481;51.118;6.940;2023-10-08T10:05:20;2.78;;;1.30;;
33108;SDS011;19481;51.118;6.940;2023-10-08T10:10:25;4.85;;;1.20;;
33108;SDS011;19481;51.118;6.940;2023-10-08T10:15:27;4.72;;;1.23;;
33108;SDS011;19481;51.118;6.940;2023-10-08T10:20:32;2.65;;;1.52;;
33108;SDS011;19481;51.118;6.940;2023-10-08T10:25:34;4.35;;;2.05;;
33108;SDS011;19481;51.118;6.940;2023-10-08T10:30:39;4.07;;;1.70;;
33108;SDS011;19481;51.118;6.940;2023-10-08T10:35:43;3.55;;;1.70;;
33108;SDS011;19481;51.118;6.940;2023-10-08T10:40:51;2.60;;;1.58;;
33108;SDS011;19481;51.118;6.940;2023-10-08T10:45:57;1.63;;;1.50;;
33108;SDS011;19481;51.118;6.940;2023-10-08T10:51:01;3.38;;;1.65;;
33108;SDS011;19481;51.118;6.940;2023-10-08T10:56:13;4.00;;;1.73;;
33108;SDS011;19481;51.118;6.940;2023-10-08T11:01:18;2.92;;;1.42;;
33108;SDS011;19481;51.118;6.940;2023-10-08T11:06:25;3.78;;;1.50;;
33108;SDS011;19481;51.118;6.940;2023-10-08T11:11:28;3.58;;;1.83;;
33108;SDS011;19481;51.118;6.940;2023-10-08T11:16:31;4.68;;;1.75;;
33108;SDS011;19481;51.118;6.940;2023-10-08T11:21:37;2.42;;;1.50;;
33108;SDS011;19481;51.118;6.940;2023-10-08T11:26:50;2.83;;;1.90;;
33108;SDS011;19481;51.118;6.940;2023-10-08T11:32:06;6.43;;;2.25;;
33108;SDS011;19481;51.118;6.940;2023-10-08T11:37:13;4.57;;;1.52;;
33108;SDS011;19481;51.118;6.940;2023-10-08T11:42:20;3.58;;;1.90;;
33108;SDS011;19481;51.118;6.940;2023-10-08T11:47:40;2.45;;;1.42;;
33108;SDS011;19481;51.118;6.940;2023-10-08T11:52:43;7.30;;;1.77;;
33108;SDS011;19481;51.118;6.940;2023-10-08T11:57:45;5.68;;;2.03;;
33108;SDS011;19481;51.118;6.940;2023-10-08T12:02:49;2.05;;;1.60;;
33108;SDS011;19481;51.118;6.940;2023-10-08T12:07:53;5.45;;;2.00;;
33108;SDS011;19481;51.118;6.940;2023-10-08T12:12:58;4.50;;;2.10;;
33108;SDS011;19481;51.118;6.940;2023-10-08T12:18:00;3.20;;;2.10;;
33108;SDS011;19481;51.118;6.940;2023-10-08T12:23:14;2.72;;;1.60;;
33108;SDS011;19481;51.118;6.940;2023-10-08T12:28:24;3.20;;;1.65;;
33108;SDS011;19481;51.118;6.940;2023-10-08T12:33:27;4.63;;;1.60;;
33108;SDS011;19481;51.118;6.940;2023-10-08T12:38:31;4.63;;;1.90;;
33108;SDS011;19481;51.118;6.940;2023-10-08T12:43:32;2.95;;;1.75;;
33108;SDS011;19481;51.118;6.940;2023-10-08T12:48:38;2.60;;;1.55;;
33108;SDS011;19481;51.118;6.940;2023-10-08T12:53:41;4.22;;;2.00;;
33108;SDS011;19481;51.118;6.940;2023-10-08T12:58:50;3.95;;;1.67;;
33108;SDS011;19481;51.118;6.940;2023-10-08T13:03:54;6.88;;;1.90;;
33108;SDS011;19481;51.118;6.940;2023-10-08T13:09:01;4.97;;;1.60;;
33108;SDS011;19481;51.118;6.940;2023-10-08T13:14:09;5.65;;;1.80;;
33108;SDS011;19481;51.118;6.940;2023-10-08T13:19:11;8.68;;;2.03;;
33108;SDS011;19481;51.118;6.940;2023-10-08T13:24:17;3.35;;;1.52;;
33108;SDS011;19481;51.118;6.940;2023-10-08T13:29:18;4.80;;;1.70;;
33108;SDS011;19481;51.118;6.940;2023-10-08T13:34:20;4.78;;;1.63;;
33108;SDS011;19481;51.118;6.940;2023-10-08T13:39:23;2.47;;;1.35;;
33108;SDS011;19481;51.118;6.940;2023-10-08T13:44:24;4.00;;;1.80;;
33108;SDS011;19481;51.118;6.940;2023-10-08T13:49:29;3.05;;;1.58;;
33108;SDS011;19481;51.118;6.940;2023-10-08T13:54:32;5.55;;;1.58;;
33108;SDS011;19481;51.118;6.940;2023-10-08T13:59:35;5.57;;;1.50;;
33108;SDS011;19481;51.118;6.940;2023-10-08T14:04:38;3.38;;;1.90;;
33108;SDS011;19481;51.118;6.940;2023-10-08T14:09:42;3.53;;;1.90;;
33108;SDS011;19481;51.118;6.940;2023-10-08T14:14:45;3.45;;;1.70;;
33108;SDS011;19481;51.118;6.940;2023-10-08T14:19:49;2.85;;;1.65;;
33108;SDS011;19481;51.118;6.940;2023-10-08T14:25:01;5.53;;;3.25;;
33108;SDS011;19481;51.118;6.940;2023-10-08T14:30:02;3.72;;;1.67;;
33108;SDS011;19481;51.118;6.940;2023-10-08T14:35:06;8.05;;;1.88;;
33108;SDS011;19481;51.118;6.940;2023-10-08T14:40:26;2.10;;;1.42;;
33108;SDS011;19481;51.118;6.940;2023-10-08T14:45:45;5.20;;;1.90;;
33108;SDS011;19481;51.118;6.940;2023-10-08T14:50:47;1.90;;;1.42;;
33108;SDS011;19481;51.118;6.940;2023-10-08T14:55:50;2.58;;;1.77;;
33108;SDS011;19481;51.118;6.940;2023-10-08T15:00:52;4.07;;;2.10;;
33108;SDS011;19481;51.118;6.940;2023-10-08T15:05:54;2.75;;;1.75;;
33108;SDS011;19481;51.118;6.940;2023-10-08T15:10:58;3.65;;;2.03;;
33108;SDS011;19481;51.118;6.940;2023-10-08T15:16:00;4.35;;;1.65;;
33108;SDS011;19481;51.118;6.940;2023-10-08T15:21:04;3.03;;;2.15;;
33108;SDS011;19481;51.118;6.940;2023-10-08T15:26:08;4.13;;;2.55;;
33108;SDS011;19481;51.118;6.940;2023-10-08T15:31:11;3.10;;;1.77;;
33108;SDS011;19481;51.118;6.940;2023-10-08T15:36:13;3.63;;;1.90;;
33108;SDS011;19481;51.118;6.940;2023-10-08T15:41:16;2.67;;;2.22;;
33108;SDS011;19481;51.118;6.940;2023-10-08T15:46:19;3.67;;;1.45;;
33108;SDS011;19481;51.118;6.940;2023-10-08T15:51:20;3.38;;;2.20;;
33108;SDS011;19481;51.118;6.940;2023-10-08T15:56:26;2.85;;;1.90;;
33108;SDS011;19481;51.118;6.940;2023-10-08T16:01:28;2.88;;;1.65;;
33108;SDS011;19481;51.118;6.940;2023-10-08T16:06:30;3.58;;;1.98;;
33108;SDS011;19481;51.118;6.940;2023-10-08T16:11:33;4.43;;;1.90;;
33108;SDS011;19481;51.118;6.940;2023-10-08T16:16:36;3.10;;;1.70;;
33108;SDS011;19481;51.118;6.940;2023-10-08T16:26:42;4.47;;;2.03;;
33108;SDS011;19481;51.118;6.940;2023-10-08T16:31:44;4.90;;;1.90;;
33108;SDS011;19481;51.118;6.940;2023-10-08T16:36:47;3.28;;;2.20;;
33108;SDS011;19481;51.118;6.940;2023-10-08T16:41:50;3.33;;;2.15;;
33108;SDS011;19481;51.118;6.940;2023-10-08T16:46:52;2.90;;;2.00;;
33108;SDS011;19481;51.118;6.940;2023-10-08T16:51:54;2.72;;;2.03;;
33108;SDS011;19481;51.118;6.940;2023-10-08T16:56:57;3.80;;;2.22;;
33108;SDS011;19481;51.118;6.940;2023-10-08T17:01:58;5.82;;;3.13;;
33108;SDS011;19481;51.118;6.940;2023-10-08T17:07:00;4.15;;;2.38;;
33108;SDS011;19481;51.118;6.940;2023-10-08T17:12:06;2.13;;;1.75;;
33108;SDS011;19481;51.118;6.940;2023-10-08T17:17:09;3.88;;;2.20;;
33108;SDS011;19481;51.118;6.940;2023-10-08T17:22:12;2.95;;;2.10;;
33108;SDS011;19481;51.118;6.940;2023-10-08T17:27:15;4.72;;;2.28;;
33108;SDS011;19481;51.118;6.940;2023-10-08T17:32:16;4.28;;;2.35;;
33108;SDS011;19481;51.118;6.940;2023-10-08T17:37:21;2.50;;;2.05;;
33108;SDS011;19481;51.118;6.940;2023-10-08T17:42:25;5.40;;;2.35;;
33108;SDS011;19481;51.118;6.940;2023-10-08T17:47:27;3.97;;;2.45;;
33108;SDS011;19481;51.118;6.940;2023-10-08T17:52:29;3.40;;;2.50;;
33108;SDS011;19481;51.118;6.940;2023-10-08T17:57:32;3.50;;;2.05;;
33108;SDS011;19481;51.118;6.940;2023-10-08T18:02:34;3.13;;;2.10;;
33108;SDS011;19481;51.118;6.940;2023-10-08T18:07:36;2.63;;;1.83;;
33108;SDS011;19481;51.118;6.940;2023-10-08T18:12:39;3.58;;;2.55;;
33108;SDS011;19481;51.118;6.940;2023-10-08T18:17:41;4.50;;;2.50;;
33108;SDS011;19481;51.118;6.940;2023-10-08T18:22:44;3.17;;;2.35;;
33108;SDS011;19481;51.118;6.940;2023-10-08T18:27:47;3.88;;;2.08;;
33108;SDS011;19481;51.118;6.940;2023-10-08T18:32:49;3.88;;;2.10;;
33108;SDS011;19481;51.118;6.940;2023-10-08T18:37:51;4.10;;;2.33;;
33108;SDS011;19481;51.118;6.940;2023-10-08T18:43:00;3.95;;;2.58;;
33108;SDS011;19481;51.118;6.940;2023-10-08T18:48:02;3.45;;;2.35;;
33108;SDS011;19481;51.118;6.940;2023-10-08T18:53:05;5.22;;;2.08;;
33108;SDS011;19481;51.118;6.940;2023-10-08T18:58:09;3.72;;;2.28;;
33108;SDS011;19481;51.118;6.940;2023-10-08T19:03:11;5.82;;;2.00;;
33108;SDS011;19481;51.118;6.940;2023-10-08T19:08:13;5.25;;;2.67;;
33108;SDS011;19481;51.118;6.940;2023-10-08T19:13:16;4.28;;;2.38;;
33108;SDS011;19481;51.118;6.940;2023-10-08T19:18:18;3.80;;;2.50;;
33108;SDS011;19481;51.118;6.940;2023-10-08T19:23:19;4.13;;;2.58;;
33108;SDS011;19481;51.118;6.940;2023-10-08T19:28:23;6.95;;;2.70;;
33108;SDS011;19481;51.118;6.940;2023-10-08T19:33:26;4.47;;;2.22;;
33108;SDS011;19481;51.118;6.940;2023-10-08T19:38:29;3.92;;;2.90;;
33108;SDS011;19481;51.118;6.940;2023-10-08T19:43:32;4.40;;;2.40;;
33108;SDS011;19481;51.118;6.940;2023-10-08T19:48:34;3.63;;;2.85;;
33108;SDS011;19481;51.118;6.940;2023-10-08T19:53:36;6.13;;;3.00;;
33108;SDS011;19481;51.118;6.940;2023-10-08T19:58:40;5.00;;;2.53;;
33108;SDS011;19481;51.118;6.940;2023-10-08T20:03:41;3.60;;;2.20;;
33108;SDS011;19481;51.118;6.940;2023-10-08T20:08:44;3.28;;;2.20;;
33108;SDS011;19481;51.118;6.940;2023-10-08T20:13:47;4.05;;;2.67;;
33108;SDS011;19481;51.118;6.940;2023-10-08T20:18:49;4.43;;;2.78;;
33108;SDS011;19481;51.118;6.940;2023-10-08T20:23:51;4.60;;;2.78;;
33108;SDS011;19481;51.118;6.940;2023-10-08T20:28:54;6.28;;;2.60;;
33108;SDS011;19481;51.118;6.940;2023-10-08T20:33:57;4.05;;;2.33;;
33108;SDS011;19481;51.118;6.940;2023-10-08T20:39:00;5.60;;;3.17;;
33108;SDS011;19481;51.118;6.940;2023-10-08T20:44:04;3.53;;;2.40;;
33108;SDS011;19481;51.118;6.940;2023-10-08T20:49:06;5.63;;;3.10;;
33108;SDS011;19481;51.118;6.940;2023-10-08T20:54:08;7.45;;;3.45;;
33108;SDS011;19481;51.118;6.940;2023-10-08T20:59:11;3.28;;;2.53;;
33108;SDS011;19481;51.118;6.940;2023-10-08T21:04:13;3.40;;;2.40;;
33108;SDS011;19481;51.118;6.940;2023-10-08T21:09:14;5.10;;;2.95;;
33108;SDS011;19481;51.118;6.940;2023-10-08T21:14:18;3.95;;;2.22;;
33108;SDS011;19481;51.118;6.940;2023-10-08T21:19:20;4.07;;;2.60;;
33108;SDS011;19481;51.118;6.940;2023-10-08T21:24:22;5.85;;;2.20;;
33108;SDS011;19481;51.118;6.940;2023-10-08T21:29:25;4.50;;;2.20;;
33108;SDS011;19481;51.118;6.940;2023-10-08T21:34:26;5.88;;;2.88;;
33108;SDS011;19481;51.118;6.940;2023-10-08T21:39:30;3.45;;;2.80;;
33108;SDS011;19481;51.118;6.940;2023-10-08T21:44:33;4.05;;;2.50;;
33108;SDS011;19481;51.118;6.940;2023-10-08T21:49:35;6.10;;;3.17;;
33108;SDS011;19481;51.118;6.940;2023-10-08T21:54:37;5.13;;;2.90;;
33108;SDS011;19481;51.118;6.940;2023-10-08T21:59:39;5.00;;;2.78;;
33108;SDS011;19481;51.118;6.940;2023-10-08T22:04:41;7.88;;;2.80;;
33108;SDS011;19481;51.118;6.940;2023-10-08T22:09:43;3.83;;;2.20;;
33108;SDS011;19481;51.118;6.940;2023-10-08T22:14:48;4.15;;;2.63;;
33108;SDS011;19481;51.118;6.940;2023-10-08T22:19:52;3.35;;;2.55;;
33108;SDS011;19481;51.118;6.940;2023-10-08T22:24:55;6.97;;;2.08;;
33108;SDS011;19481;51.118;6.940;2023-10-08T22:30:00;3.75;;;2.10;;
33108;SDS011;19481;51.118;6.940;2023-10-08T22:35:01;3.42;;;2.40;;
33108;SDS011;19481;51.118;6.940;2023-10-08T22:40:14;4.57;;;2.55;;
33108;SDS011;19481;51.118;6.940;2023-10-08T22:45:19;4.32;;;2.25;;
33108;SDS011;19481;51.118;6.940;2023-10-08T22:50:27;4.60;;;2.80;;
33108;SDS011;19481;51.118;6.940;2023-10-08T22:55:35;3.35;;;2.35;;
33108;SDS011;19481;51.118;6.940;2023-10-08T23:00:39;2.90;;;1.95;;
33108;SDS011;19481;51.118;6.940;2023-10-08T23:05:42;5.82;;;2.17;;
33108;SDS011;19481;51.118;6.940;2023-10-08T23:10:46;4.65;;;2.60;;
33108;SDS011;19481;51.118;6.940;2023-10-08T23:15:52;5.78;;;2.45;;
33108;SDS011;19481;51.118;6.940;2023-10-08T23:20:54;5.07;;;2.60;;
33108;SDS011;19481;51.118;6.940;2023-10-08T23:25:55;5.55;;;2.08;;
33108;SDS011;19481;51.118;6.940;2023-10-08T23:31:01;8.15;;;2.58;;
33108;SDS011;19481;51.118;6.940;2023-10-08T23:36:03;3.97;;;2.45;;
33108;SDS011;19481;51.118;6.940;2023-10-08T23:41:08;2.28;;;2.08;;
33108;SDS011;19481;51.118;6.940;2023-10-08T23:46:17;3.78;;;2.53;;
33108;SDS011;19481;51.118;6.940;2023-10-08T23:51:22;3.05;;;1.85;;
33108;SDS011;19481;51.118;6.940;2023-10-08T23:56:23;3.25;;;2.20;;
